Time;durP1;ratioP1;P1;durP2;ratioP2;P2;SDS_P1;SDS_P2;PMS_P1;PMS_P2;Temp;Humidity;BMP_temperature;BMP_pressure;BME280_temperature;BME280_humidity;BME280_pressure;Samples;Min_cycle;Max_cycle;Signal;HPM_P1;HPM_P2
2021/03/27 00:00:41;;;;;;;21.95;5.90;;;;;;;;;;5050790;28;20060;-66
2021/03/27 00:03:06;;;;;;;13.32;5.18;;;;;;;;;;5049859;28;20549;-66
2021/03/27 00:05:36;;;;;;;10.13;2.85;;;;;;;;;;5048352;28;20112;-66
2021/03/27 00:08:08;;;;;;;13.63;5.30;;;;;;;;;;5050834;28;20279;-67
2021/03/27 00:10:34;;;;;;;13.52;5.90;;;;;;;;;;5051079;28;20079;-66
2021/03/27 00:13:08;;;;;;;17.25;7.03;;;;;;;;;;5049841;28;20021;-66
2021/03/27 00:15:40;;;;;;;19.30;8.07;;;;;;;;;;5046371;28;20025;-66
2021/03/27 00:18:10;;;;;;;15.68;7.57;;;;;;;;;;5049721;28;20068;-65
2021/03/27 00:20:41;;;;;;;7.15;3.28;;;;;;;;;;5040019;28;20439;-66
2021/03/27 00:23:14;;;;;;;16.25;4.15;;;;;;;;;;5050958;28;20029;-66
2021/03/27 00:26:11;;;;;;;11.63;4.65;;;;;;;;;;5050135;28;20420;-67
2021/03/27 00:28:49;;;;;;;13.48;7.85;;;;;;;;;;5005679;28;20044;-66
2021/03/27 00:31:16;;;;;;;12.18;6.32;;;;;;;;;;5048023;28;20468;-66
2021/03/27 00:33:46;;;;;;;17.38;6.55;;;;;;;;;;5049271;28;20032;-66
2021/03/27 00:36:17;;;;;;;10.77;5.32;;;;;;;;;;5048884;28;20029;-67
2021/03/27 00:38:45;;;;;;;8.18;4.72;;;;;;;;;;5047603;28;20025;-66
2021/03/27 00:41:12;;;;;;;9.43;4.50;;;;;;;;;;5048523;28;20078;-66
2021/03/27 00:43:40;;;;;;;6.60;3.72;;;;;;;;;;5050472;28;20550;-66
2021/03/27 00:46:07;;;;;;;6.13;3.08;;;;;;;;;;5050441;28;20044;-66
2021/03/27 00:48:35;;;;;;;3.55;2.15;;;;;;;;;;5049720;28;20104;-66
2021/03/27 00:51:10;;;;;;;5.13;2.47;;;;;;;;;;5049878;28;20031;-66
2021/03/27 00:53:39;;;;;;;6.13;2.60;;;;;;;;;;5049758;28;20162;-66
2021/03/27 00:56:26;;;;;;;8.50;3.42;;;;;;;;;;5045586;28;20036;-66
2021/03/27 00:58:56;;;;;;;9.30;5.18;;;;;;;;;;5049806;28;20054;-65
2021/03/27 01:01:22;;;;;;;7.18;4.13;;;;;;;;;;5050011;28;20106;-66
2021/03/27 01:03:51;;;;;;;7.55;3.42;;;;;;;;;;5044391;28;20057;-66
2021/03/27 01:06:21;;;;;;;8.98;3.60;;;;;;;;;;5047043;28;20029;-66
2021/03/27 01:08:48;;;;;;;3.55;1.90;;;;;;;;;;5050046;28;20040;-66
2021/03/27 01:11:34;;;;;;;3.47;2.05;;;;;;;;;;5050163;28;20055;-66
2021/03/27 01:14:02;;;;;;;2.08;1.23;;;;;;;;;;5050181;28;20028;-66
2021/03/27 01:16:30;;;;;;;2.15;1.55;;;;;;;;;;5049785;28;20025;-66
2021/03/27 01:19:04;;;;;;;3.30;1.30;;;;;;;;;;5049827;28;20032;-66
2021/03/27 01:21:31;;;;;;;4.45;2.42;;;;;;;;;;5048468;28;21626;-66
2021/03/27 01:23:58;;;;;;;6.85;3.88;;;;;;;;;;5049367;28;20032;-66
2021/03/27 01:26:26;;;;;;;4.30;2.80;;;;;;;;;;5049712;28;20480;-66
2021/03/27 01:28:56;;;;;;;2.55;2.00;;;;;;;;;;5050013;28;20124;-66
2021/03/27 01:33:55;;;;;;;9.68;2.63;;;;;;;;;;5008221;28;20046;-63
2021/03/27 01:36:46;;;;;;;5.85;2.60;;;;;;;;;;5009269;28;20489;-63
2021/03/27 01:39:14;;;;;;;5.10;2.40;;;;;;;;;;5007719;28;20044;-63
2021/03/27 01:41:58;;;;;;;3.63;2.42;;;;;;;;;;5009644;28;20105;-62
2021/03/27 01:44:42;;;;;;;4.75;2.45;;;;;;;;;;5009901;28;20482;-63
2021/03/27 01:47:10;;;;;;;8.75;2.65;;;;;;;;;;5009300;28;20030;-63
2021/03/27 01:49:52;;;;;;;6.35;2.80;;;;;;;;;;5009616;28;20481;-63
2021/03/27 01:52:20;;;;;;;4.13;1.80;;;;;;;;;;5009602;28;20108;-63
2021/03/27 01:54:51;;;;;;;7.68;2.08;;;;;;;;;;5008720;28;20022;-62
2021/03/27 01:57:36;;;;;;;8.65;2.03;;;;;;;;;;5009199;28;20021;-62
2021/03/27 02:00:10;;;;;;;5.82;3.22;;;;;;;;;;5013535;28;20021;-63
2021/03/27 02:02:40;;;;;;;7.68;3.63;;;;;;;;;;5013368;28;20026;-63
2021/03/27 02:05:11;;;;;;;7.43;4.40;;;;;;;;;;5013115;28;20010;-63
2021/03/27 02:07:48;;;;;;;18.13;7.63;;;;;;;;;;5014342;28;20033;-64
2021/03/27 02:10:28;;;;;;;12.02;5.43;;;;;;;;;;5013707;28;20121;-63
2021/03/27 02:12:57;;;;;;;3.83;2.63;;;;;;;;;;5011880;28;20033;-63
2021/03/27 02:15:41;;;;;;;4.07;2.60;;;;;;;;;;5011798;28;20501;-63
2021/03/27 02:18:14;;;;;;;7.53;2.63;;;;;;;;;;5012706;28;20049;-62
2021/03/27 02:20:39;;;;;;;10.05;3.20;;;;;;;;;;5011905;28;20030;-63
2021/03/27 02:23:10;;;;;;;6.18;2.30;;;;;;;;;;5012979;28;20492;-63
2021/03/27 02:26:05;;;;;;;5.53;1.90;;;;;;;;;;5012921;28;20264;-63
2021/03/27 02:28:33;;;;;;;8.25;2.30;;;;;;;;;;5002710;28;20085;-63
2021/03/27 02:31:16;;;;;;;10.20;1.98;;;;;;;;;;5011759;28;20474;-62
2021/03/27 02:33:49;;;;;;;3.00;1.48;;;;;;;;;;5012109;28;20414;-64
2021/03/27 02:36:33;;;;;;;10.25;2.38;;;;;;;;;;5012258;28;20068;-63
2021/03/27 02:39:02;;;;;;;5.07;1.42;;;;;;;;;;5012939;28;20102;-62
2021/03/27 02:41:39;;;;;;;5.18;1.80;;;;;;;;;;5012665;28;20029;-63
2021/03/27 02:44:18;;;;;;;9.65;1.75;;;;;;;;;;5012746;28;20014;-64
2021/03/27 02:46:47;;;;;;;4.05;1.55;;;;;;;;;;5003671;28;20040;-61
2021/03/27 02:49:19;;;;;;;3.23;1.30;;;;;;;;;;5011574;28;20022;-63
2021/03/27 02:51:53;;;;;;;6.97;1.80;;;;;;;;;;5012791;28;20061;-64
2021/03/27 02:54:24;;;;;;;7.88;1.65;;;;;;;;;;5011824;28;20379;-63
2021/03/27 02:56:55;;;;;;;7.50;1.65;;;;;;;;;;5012229;28;20017;-63
2021/03/27 02:59:38;;;;;;;6.90;1.75;;;;;;;;;;5012153;28;20073;-63
2021/03/27 03:02:10;;;;;;;9.13;2.15;;;;;;;;;;5011742;28;20029;-64
2021/03/27 03:04:56;;;;;;;10.52;2.20;;;;;;;;;;5011877;28;20034;-63
2021/03/27 03:07:21;;;;;;;5.22;2.15;;;;;;;;;;5010977;28;20022;-61
2021/03/27 03:10:05;;;;;;;6.20;2.15;;;;;;;;;;5012387;28;20029;-64
2021/03/27 03:12:39;;;;;;;8.27;2.45;;;;;;;;;;5006394;28;20037;-63
2021/03/27 03:15:07;;;;;;;5.45;2.00;;;;;;;;;;4996964;28;20021;-62
2021/03/27 03:17:39;;;;;;;6.65;2.55;;;;;;;;;;5011315;28;20222;-62
2021/03/27 03:20:12;;;;;;;5.60;3.08;;;;;;;;;;5012211;28;20029;-62
2021/03/27 03:22:40;;;;;;;11.70;2.63;;;;;;;;;;5011833;28;20030;-64
2021/03/27 03:25:11;;;;;;;4.65;1.85;;;;;;;;;;5012154;28;20401;-62
2021/03/27 03:27:51;;;;;;;2.45;1.85;;;;;;;;;;5006279;28;20036;-63
2021/03/27 03:30:31;;;;;;;8.13;3.05;;;;;;;;;;5011817;28;20017;-63
2021/03/27 03:33:29;;;;;;;10.27;3.08;;;;;;;;;;5010662;28;20481;-63
2021/03/27 03:35:57;;;;;;;11.07;2.83;;;;;;;;;;4985562;28;20044;-63
2021/03/27 03:38:30;;;;;;;12.15;3.00;;;;;;;;;;5011747;28;20021;-63
2021/03/27 03:41:07;;;;;;;4.38;1.95;;;;;;;;;;5012076;28;20086;-62
2021/03/27 03:43:51;;;;;;;5.97;2.30;;;;;;;;;;5011760;28;20036;-64
2021/03/27 03:46:34;;;;;;;7.85;2.65;;;;;;;;;;5011195;28;20022;-63
2021/03/27 03:49:07;;;;;;;4.35;2.35;;;;;;;;;;5011274;28;20446;-63
2021/03/27 03:51:47;;;;;;;9.80;2.85;;;;;;;;;;5011432;28;20509;-63
2021/03/27 03:54:13;;;;;;;1.92;1.48;;;;;;;;;;5011254;28;20026;-62
2021/03/27 03:56:38;;;;;;;7.30;2.27;;;;;;;;;;5011127;28;20036;-62
2021/03/27 03:59:09;;;;;;;17.92;7.07;;;;;;;;;;5011125;28;20737;-61
2021/03/27 04:01:44;;;;;;;26.17;11.43;;;;;;;;;;5011438;28;20029;-63
2021/03/27 04:04:15;;;;;;;31.88;14.90;;;;;;;;;;5011236;28;20026;-63
2021/03/27 04:06:41;;;;;;;18.40;8.85;;;;;;;;;;5011180;28;20367;-63
2021/03/27 04:09:13;;;;;;;8.25;4.32;;;;;;;;;;5010801;28;20083;-62
2021/03/27 04:11:41;;;;;;;3.28;1.42;;;;;;;;;;5011240;28;20037;-60
2021/03/27 04:14:16;;;;;;;17.27;3.20;;;;;;;;;;5010869;28;20030;-63
2021/03/27 04:16:42;;;;;;;20.27;4.32;;;;;;;;;;5009489;28;20096;-63
2021/03/27 04:19:20;;;;;;;5.85;2.40;;;;;;;;;;5010979;28;20026;-63
2021/03/27 04:22:03;;;;;;;6.13;1.48;;;;;;;;;;5010859;28;20045;-63
2021/03/27 04:24:33;;;;;;;12.45;2.20;;;;;;;;;;5010466;28;20018;-62
2021/03/27 04:27:04;;;;;;;12.00;3.30;;;;;;;;;;5010817;28;20045;-62
2021/03/27 04:29:32;;;;;;;12.27;1.92;;;;;;;;;;5010068;28;20021;-62
2021/03/27 04:32:24;;;;;;;8.27;2.15;;;;;;;;;;5011008;28;20533;-63
2021/03/27 04:34:56;;;;;;;11.93;2.35;;;;;;;;;;5008655;28;20034;-62
2021/03/27 04:37:43;;;;;;;18.10;2.70;;;;;;;;;;5010823;28;20041;-62
2021/03/27 04:40:15;;;;;;;15.38;2.03;;;;;;;;;;5011155;28;20014;-63
2021/03/27 04:42:46;;;;;;;16.90;2.58;;;;;;;;;;5009739;28;20030;-62
2021/03/27 04:45:20;;;;;;;15.70;1.75;;;;;;;;;;5010340;28;20101;-62
2021/03/27 04:47:47;;;;;;;8.25;2.25;;;;;;;;;;5010255;28;20049;-62
2021/03/27 04:50:21;;;;;;;11.07;1.67;;;;;;;;;;5010632;28;20018;-62
2021/03/27 04:52:49;;;;;;;17.10;2.75;;;;;;;;;;5010262;28;20009;-62
2021/03/27 04:55:20;;;;;;;12.70;2.55;;;;;;;;;;4996126;28;20112;-62
2021/03/27 04:57:57;;;;;;;9.10;2.00;;;;;;;;;;4999586;28;20085;-62
2021/03/27 05:00:45;;;;;;;10.13;1.88;;;;;;;;;;5009653;28;20548;-62
2021/03/27 05:03:17;;;;;;;10.48;2.03;;;;;;;;;;5010513;28;20061;-62
2021/03/27 05:05:51;;;;;;;13.98;1.85;;;;;;;;;;5009932;28;20526;-62
2021/03/27 05:08:37;;;;;;;9.15;2.13;;;;;;;;;;5009833;28;20096;-62
2021/03/27 05:11:08;;;;;;;8.65;1.92;;;;;;;;;;4999189;28;20034;-61
2021/03/27 05:13:39;;;;;;;5.90;1.35;;;;;;;;;;5009585;28;20047;-60
2021/03/27 05:16:10;;;;;;;9.73;2.28;;;;;;;;;;5009101;28;20029;-62
2021/03/27 05:18:39;;;;;;;4.45;1.40;;;;;;;;;;5008988;28;20030;-63
2021/03/27 05:21:12;;;;;;;5.18;1.13;;;;;;;;;;5006441;28;20022;-62
2021/03/27 05:23:45;;;;;;;7.07;1.65;;;;;;;;;;5008845;28;20026;-63
2021/03/27 05:26:36;;;;;;;15.32;1.85;;;;;;;;;;5004947;28;20458;-62
2021/03/27 05:29:01;;;;;;;;;;;;;;;;;;5010766;28;20064;-62
2021/03/27 05:31:33;;;;;;;19.60;1.92;;;;;;;;;;5009220;28;19937;-63
2021/03/27 05:34:10;;;;;;;11.88;1.77;;;;;;;;;;5013170;28;20076;-63
2021/03/27 05:36:47;;;;;;;8.07;2.05;;;;;;;;;;5013354;28;20025;-63
2021/03/27 05:39:22;;;;;;;6.20;1.42;;;;;;;;;;5012284;28;20013;-62
2021/03/27 05:41:54;;;;;;;8.00;1.30;;;;;;;;;;5010759;28;20022;-61
2021/03/27 05:44:25;;;;;;;22.80;1.77;;;;;;;;;;5013632;28;20141;-61
2021/03/27 05:46:53;;;;;;;22.10;3.47;;;;;;;;;;5012976;28;20057;-62
2021/03/27 05:49:44;;;;;;;9.27;2.03;;;;;;;;;;5012949;28;20061;-62
2021/03/27 05:52:33;;;;;;;9.43;1.60;;;;;;;;;;5011665;28;20042;-61
2021/03/27 05:55:05;;;;;;;15.88;3.08;;;;;;;;;;5012830;28;20101;-61
2021/03/27 05:57:35;;;;;;;14.82;2.75;;;;;;;;;;5011058;28;20497;-61
2021/03/27 06:00:00;;;;;;;;;;;;;;;;;;5010540;28;20033;-63
2021/03/27 06:02:40;;;;;;;19.00;8.70;;;;;;;;;;5012042;28;19917;-63
2021/03/27 06:05:25;;;;;;;21.98;8.43;;;;;;;;;;5007769;28;20029;-62
2021/03/27 06:08:09;;;;;;;35.47;14.30;;;;;;;;;;5006214;28;20030;-63
2021/03/27 06:10:46;;;;;;;12.57;4.20;;;;;;;;;;5002459;28;20037;-62
2021/03/27 06:13:17;;;;;;;6.68;1.58;;;;;;;;;;5011129;28;20022;-62
2021/03/27 06:15:42;;;;;;;11.32;2.85;;;;;;;;;;5010954;28;20026;-62
2021/03/27 06:18:27;;;;;;;2.47;1.02;;;;;;;;;;5009740;28;20014;-62
2021/03/27 06:20:58;;;;;;;15.13;2.15;;;;;;;;;;5010246;28;20260;-63
2021/03/27 06:23:23;;;;;;;6.05;1.95;;;;;;;;;;5010023;28;20034;-62
2021/03/27 06:26:06;;;;;;;20.42;2.45;;;;;;;;;;5010303;28;20452;-63
2021/03/27 06:28:50;;;;;;;11.35;3.80;;;;;;;;;;5010209;28;20261;-63
2021/03/27 06:31:34;;;;;;;14.48;2.00;;;;;;;;;;5010747;28;20505;-62
2021/03/27 06:34:18;;;;;;;8.30;1.88;;;;;;;;;;5010233;28;20454;-62
2021/03/27 06:37:01;;;;;;;7.53;2.47;;;;;;;;;;5010428;28;20467;-63
2021/03/27 06:39:33;;;;;;;6.82;2.20;;;;;;;;;;5010378;28;20018;-63
2021/03/27 06:42:18;;;;;;;12.63;2.15;;;;;;;;;;5010437;28;20570;-63
2021/03/27 06:44:46;;;;;;;11.18;1.95;;;;;;;;;;5008181;28;20053;-63
2021/03/27 06:47:14;;;;;;;15.15;2.92;;;;;;;;;;5010106;28;20057;-64
2021/03/27 06:49:42;;;;;;;8.52;1.80;;;;;;;;;;5010155;28;20394;-63
2021/03/27 06:52:13;;;;;;;9.40;2.17;;;;;;;;;;5009240;28;20040;-63
2021/03/27 06:54:49;;;;;;;12.75;3.33;;;;;;;;;;5006059;28;20112;-64
2021/03/27 06:57:20;;;;;;;16.30;2.42;;;;;;;;;;5009948;28;20025;-62
2021/03/27 06:59:55;;;;;;;18.15;2.90;;;;;;;;;;5006560;28;20021;-63
2021/03/27 07:02:39;;;;;;;7.03;1.33;;;;;;;;;;5011423;28;20105;-65
2021/03/27 07:05:13;;;;;;;3.10;1.10;;;;;;;;;;5006364;28;20033;-64
2021/03/27 07:07:44;;;;;;;4.53;1.20;;;;;;;;;;5009070;28;20037;-63
2021/03/27 07:10:15;;;;;;;2.78;0.80;;;;;;;;;;5008857;28;20030;-63
2021/03/27 07:12:52;;;;;;;4.57;1.00;;;;;;;;;;5009162;28;20094;-64
2021/03/27 07:15:42;;;;;;;8.40;1.00;;;;;;;;;;5008691;28;20050;-63
2021/03/27 07:18:25;;;;;;;2.00;0.90;;;;;;;;;;5009065;28;20045;-64
2021/03/27 07:21:06;;;;;;;6.50;0.90;;;;;;;;;;5009494;28;20109;-63
2021/03/27 07:23:31;;;;;;;3.92;0.88;;;;;;;;;;5009373;28;20022;-64
2021/03/27 07:26:22;;;;;;;3.53;1.08;;;;;;;;;;5009283;28;20333;-63
2021/03/27 07:28:59;;;;;;;4.72;1.33;;;;;;;;;;5007530;28;20077;-61
2021/03/27 07:31:30;;;;;;;3.40;1.20;;;;;;;;;;5008424;28;20124;-64
2021/03/27 07:34:13;;;;;;;4.88;0.80;;;;;;;;;;5008087;28;20030;-64
2021/03/27 07:36:58;;;;;;;4.07;0.93;;;;;;;;;;5009344;28;20132;-62
2021/03/27 07:39:26;;;;;;;4.63;1.00;;;;;;;;;;5008306;28;20382;-63
2021/03/27 07:41:53;;;;;;;5.88;0.55;;;;;;;;;;5008828;28;20021;-64
2021/03/27 07:44:23;;;;;;;0.93;0.60;;;;;;;;;;5009375;28;20046;-63
2021/03/27 07:47:04;;;;;;;1.40;0.57;;;;;;;;;;5008916;28;20022;-63
2021/03/27 07:49:47;;;;;;;6.93;0.60;;;;;;;;;;4998951;28;20502;-63
2021/03/27 07:52:31;;;;;;;6.20;0.98;;;;;;;;;;5008599;28;20100;-63
2021/03/27 07:55:15;;;;;;;5.13;0.98;;;;;;;;;;5008623;28;20471;-61
2021/03/27 07:57:58;;;;;;;4.65;1.02;;;;;;;;;;5007647;28;20018;-63
2021/03/27 08:00:29;;;;;;;3.45;0.73;;;;;;;;;;5009352;28;20080;-64
2021/03/27 08:03:04;;;;;;;1.08;0.50;;;;;;;;;;5003552;28;20045;-63
2021/03/27 08:05:39;;;;;;;2.22;1.30;;;;;;;;;;5007767;28;20022;-62
2021/03/27 08:08:15;;;;;;;3.25;1.17;;;;;;;;;;5006718;28;20029;-64
2021/03/27 08:10:44;;;;;;;3.50;1.40;;;;;;;;;;5008260;28;20045;-62
2021/03/27 08:13:44;;;;;;;3.15;0.80;;;;;;;;;;5008548;28;20029;-62
2021/03/27 08:16:10;;;;;;;;;;;;;;;;;;4985175;28;20030;-63
2021/03/27 08:18:55;;;;;;;5.97;1.30;;;;;;;;;;4996911;28;19913;-62
2021/03/27 08:21:37;;;;;;;7.65;0.98;;;;;;;;;;5008357;28;20030;-63
2021/03/27 08:24:21;;;;;;;2.92;1.23;;;;;;;;;;5008226;28;20032;-62
2021/03/27 08:27:05;;;;;;;3.20;1.52;;;;;;;;;;5006815;28;20028;-63
2021/03/27 08:29:49;;;;;;;11.20;1.25;;;;;;;;;;5006593;28;20547;-63
2021/03/27 08:32:24;;;;;;;8.80;1.90;;;;;;;;;;5007588;28;20137;-63
2021/03/27 08:35:08;;;;;;;10.43;2.40;;;;;;;;;;5006088;28;20017;-63
2021/03/27 08:37:42;;;;;;;8.38;2.35;;;;;;;;;;5006418;28;20030;-63
2021/03/27 08:40:25;;;;;;;6.75;1.50;;;;;;;;;;5007648;28;20025;-63
2021/03/27 08:43:09;;;;;;;4.57;1.33;;;;;;;;;;5008139;28;20048;-62
2021/03/27 08:45:34;;;;;;;12.48;2.67;;;;;;;;;;5007915;28;20117;-62
2021/03/27 08:48:06;;;;;;;2.50;1.23;;;;;;;;;;5006980;28;20101;-63
2021/03/27 08:50:44;;;;;;;5.63;1.15;;;;;;;;;;5008066;28;20746;-63
2021/03/27 08:53:28;;;;;;;14.57;2.15;;;;;;;;;;5007968;28;20026;-63
2021/03/27 08:56:18;;;;;;;19.95;2.55;;;;;;;;;;5004686;28;20026;-63
2021/03/27 08:58:47;;;;;;;12.45;2.67;;;;;;;;;;5001682;28;20038;-63
2021/03/27 09:01:21;;;;;;;10.95;2.03;;;;;;;;;;5006830;28;20022;-63
2021/03/27 09:04:01;;;;;;;17.42;5.03;;;;;;;;;;5006055;28;20046;-63
2021/03/27 09:06:31;;;;;;;19.75;4.00;;;;;;;;;;5005911;28;20033;-63
2021/03/27 09:08:56;;;;;;;;;;;;;;;;;;5003218;28;20064;-63
2021/03/27 09:11:27;;;;;;;17.10;2.00;;;;;;;;;;5008052;28;19913;-62
2021/03/27 09:13:52;;;;;;;17.92;4.30;;;;;;;;;;5007072;28;20030;-63
2021/03/27 09:16:17;;;;;;;19.85;3.40;;;;;;;;;;5007017;28;20084;-62
2021/03/27 09:18:45;;;;;;;12.45;3.35;;;;;;;;;;5007100;28;20026;-62
2021/03/27 09:21:22;;;;;;;5.53;1.55;;;;;;;;;;5007548;28;20028;-62
2021/03/27 09:23:47;;;;;;;23.58;4.05;;;;;;;;;;5006890;28;20551;-63
2021/03/27 09:26:37;;;;;;;12.38;2.35;;;;;;;;;;5007715;28;20121;-63
2021/03/27 09:29:23;;;;;;;14.10;3.58;;;;;;;;;;5004670;28;20025;-63
2021/03/27 09:31:48;;;;;;;19.38;2.80;;;;;;;;;;4985496;28;20491;-63
2021/03/27 09:34:16;;;;;;;7.55;2.25;;;;;;;;;;5008244;28;20030;-63
2021/03/27 09:36:46;;;;;;;13.07;2.40;;;;;;;;;;5007463;28;20293;-63
2021/03/27 09:39:20;;;;;;;17.20;2.45;;;;;;;;;;5007666;28;20022;-62
2021/03/27 09:41:57;;;;;;;16.50;2.33;;;;;;;;;;5007831;28;20479;-62
2021/03/27 09:44:25;;;;;;;9.30;2.45;;;;;;;;;;4993473;28;20707;-63
2021/03/27 09:47:04;;;;;;;8.25;1.80;;;;;;;;;;5007884;28;20026;-62
2021/03/27 09:49:32;;;;;;;8.95;1.88;;;;;;;;;;5005880;28;20104;-63
2021/03/27 09:51:57;;;;;;;6.18;1.33;;;;;;;;;;5007218;28;20052;-64
2021/03/27 09:54:31;;;;;;;18.83;3.23;;;;;;;;;;5008079;28;20819;-62
2021/03/27 09:57:01;;;;;;;9.23;1.88;;;;;;;;;;5007172;28;21020;-64
2021/03/27 09:59:35;;;;;;;9.32;2.38;;;;;;;;;;5008069;28;20030;-63
2021/03/27 10:02:04;;;;;;;20.40;2.88;;;;;;;;;;5001550;28;20030;-64
2021/03/27 10:04:47;;;;;;;11.85;2.25;;;;;;;;;;5011495;28;20136;-62
2021/03/27 10:07:23;;;;;;;13.63;2.10;;;;;;;;;;5013174;28;20377;-64
2021/03/27 10:09:57;;;;;;;14.32;2.80;;;;;;;;;;5005586;28;20564;-63
2021/03/27 10:12:22;;;;;;;13.43;2.03;;;;;;;;;;5007521;28;20057;-63
2021/03/27 10:14:51;;;;;;;11.15;3.00;;;;;;;;;;5007537;28;20057;-64
2021/03/27 10:17:23;;;;;;;21.33;3.15;;;;;;;;;;5006758;28;20025;-63
2021/03/27 10:19:51;;;;;;;13.48;2.08;;;;;;;;;;5008508;28;20077;-63
2021/03/27 10:22:29;;;;;;;19.15;4.80;;;;;;;;;;5009231;28;20044;-63
2021/03/27 10:24:59;;;;;;;12.52;3.33;;;;;;;;;;5009668;28;20053;-63
2021/03/27 10:27:40;;;;;;;19.70;3.47;;;;;;;;;;5009332;28;20100;-64
2021/03/27 10:30:13;;;;;;;13.77;3.85;;;;;;;;;;5010176;28;20026;-62
2021/03/27 10:32:49;;;;;;;21.08;3.75;;;;;;;;;;5010246;28;20399;-64
2021/03/27 10:35:33;;;;;;;17.63;4.03;;;;;;;;;;5010596;28;20025;-64
2021/03/27 10:38:05;;;;;;;17.63;3.30;;;;;;;;;;5022282;28;20129;-64
2021/03/27 10:40:56;;;;;;;15.43;2.58;;;;;;;;;;5009956;28;20017;-63
2021/03/27 10:43:29;;;;;;;14.23;3.38;;;;;;;;;;5010780;28;20505;-64
2021/03/27 10:45:59;;;;;;;20.05;3.20;;;;;;;;;;5010423;28;20895;-64
2021/03/27 10:48:47;;;;;;;19.40;4.03;;;;;;;;;;5009818;28;20037;-63
2021/03/27 10:51:37;;;;;;;30.45;4.78;;;;;;;;;;4983401;28;20053;-64
2021/03/27 10:54:21;;;;;;;17.92;4.55;;;;;;;;;;5010326;28;20470;-63
2021/03/27 10:56:59;;;;;;;15.80;3.03;;;;;;;;;;5008926;28;20030;-64
2021/03/27 10:59:34;;;;;;;26.40;3.15;;;;;;;;;;5009494;28;20076;-63
2021/03/27 11:02:07;;;;;;;9.60;1.98;;;;;;;;;;5009923;28;20080;-62
2021/03/27 11:05:08;;;;;;;18.23;3.20;;;;;;;;;;5008435;28;20036;-62
2021/03/27 11:07:42;;;;;;;12.55;1.90;;;;;;;;;;5010276;28;20042;-63
2021/03/27 11:10:34;;;;;;;15.98;2.00;;;;;;;;;;5011957;28;20113;-62
2021/03/27 11:13:08;;;;;;;8.40;2.03;;;;;;;;;;5006991;28;20036;-62
2021/03/27 11:15:45;;;;;;;17.73;2.33;;;;;;;;;;5007851;28;20034;-64
2021/03/27 11:18:16;;;;;;;14.73;3.20;;;;;;;;;;5004954;28;20080;-62
2021/03/27 11:20:54;;;;;;;12.27;2.53;;;;;;;;;;5009120;28;20021;-63
2021/03/27 11:23:22;;;;;;;15.98;2.45;;;;;;;;;;5006653;28;20022;-62
2021/03/27 11:25:53;;;;;;;8.05;1.98;;;;;;;;;;5011006;28;20144;-62
2021/03/27 11:28:24;;;;;;;11.35;2.17;;;;;;;;;;5012289;28;20026;-62
2021/03/27 11:30:49;;;;;;;13.27;3.38;;;;;;;;;;5009887;28;20022;-62
2021/03/27 11:33:20;;;;;;;10.23;3.33;;;;;;;;;;5012287;28;20025;-64
2021/03/27 11:35:53;;;;;;;25.92;4.22;;;;;;;;;;5012286;28;20018;-62
2021/03/27 11:38:27;;;;;;;10.73;3.15;;;;;;;;;;5011845;28;20018;-62
2021/03/27 11:41:02;;;;;;;16.20;3.22;;;;;;;;;;5012201;28;20487;-64
2021/03/27 11:43:30;;;;;;;11.50;2.85;;;;;;;;;;5012318;28;20589;-63
2021/03/27 11:46:05;;;;;;;15.05;3.47;;;;;;;;;;5012097;28;20393;-63
2021/03/27 11:48:36;;;;;;;19.00;3.22;;;;;;;;;;5017893;28;20155;-63
2021/03/27 11:51:04;;;;;;;10.48;2.13;;;;;;;;;;5031996;28;20374;-62
2021/03/27 11:53:29;;;;;;;12.70;3.08;;;;;;;;;;5024464;28;20054;-62
2021/03/27 11:56:01;;;;;;;18.80;4.13;;;;;;;;;;5011417;28;20111;-63
2021/03/27 11:58:31;;;;;;;10.70;2.50;;;;;;;;;;5011603;28;20383;-62
2021/03/27 12:01:09;;;;;;;10.52;2.40;;;;;;;;;;5011870;28;20679;-62
2021/03/27 12:03:47;;;;;;;9.15;1.88;;;;;;;;;;5010569;28;20029;-63
2021/03/27 12:06:21;;;;;;;13.73;3.30;;;;;;;;;;5011581;28;20022;-62
2021/03/27 12:08:55;;;;;;;9.57;2.75;;;;;;;;;;5011421;28;20022;-62
2021/03/27 12:11:39;;;;;;;11.35;3.30;;;;;;;;;;5011449;28;20022;-61
2021/03/27 12:14:11;;;;;;;10.93;2.05;;;;;;;;;;5011799;28;20025;-63
2021/03/27 12:16:42;;;;;;;10.68;1.90;;;;;;;;;;5011706;28;20104;-63
2021/03/27 12:19:14;;;;;;;11.52;2.13;;;;;;;;;;5011168;28;20644;-63
2021/03/27 12:22:02;;;;;;;9.07;2.05;;;;;;;;;;5014706;28;20497;-63
2021/03/27 12:24:30;;;;;;;13.05;3.55;;;;;;;;;;4990940;28;20068;-63
2021/03/27 12:27:15;;;;;;;14.43;3.65;;;;;;;;;;5010528;28;20705;-63
2021/03/27 12:29:42;;;;;;;14.38;3.10;;;;;;;;;;5007033;28;20026;-63
2021/03/27 12:32:07;;;;;;;14.88;2.70;;;;;;;;;;5011309;28;20430;-63
2021/03/27 12:34:37;;;;;;;6.80;1.70;;;;;;;;;;5010820;28;20040;-62
2021/03/27 12:37:05;;;;;;;7.47;2.28;;;;;;;;;;5010934;28;20338;-63
2021/03/27 12:39:43;;;;;;;9.32;3.03;;;;;;;;;;5010611;28;20033;-63
2021/03/27 12:42:16;;;;;;;11.30;2.45;;;;;;;;;;5009984;28;20390;-63
2021/03/27 12:44:44;;;;;;;15.05;2.58;;;;;;;;;;5010489;28;20018;-64
2021/03/27 12:47:39;;;;;;;15.38;3.35;;;;;;;;;;5010821;28;20029;-63
2021/03/27 12:50:23;;;;;;;13.05;4.15;;;;;;;;;;4957148;28;20610;-62
2021/03/27 12:53:06;;;;;;;11.40;2.80;;;;;;;;;;5010657;28;20037;-64
2021/03/27 12:55:40;;;;;;;13.00;2.90;;;;;;;;;;5009039;28;20049;-63
2021/03/27 12:58:08;;;;;;;4.10;1.40;;;;;;;;;;4991320;28;20062;-64
2021/03/27 13:00:36;;;;;;;17.60;2.97;;;;;;;;;;5000181;28;20633;-62
2021/03/27 13:03:16;;;;;;;26.15;3.13;;;;;;;;;;5011053;28;20042;-63
2021/03/27 13:05:46;;;;;;;10.23;2.42;;;;;;;;;;5012923;28;20466;-64
2021/03/27 13:08:18;;;;;;;9.13;2.08;;;;;;;;;;5018718;28;20034;-64
2021/03/27 13:11:01;;;;;;;8.80;2.45;;;;;;;;;;5017421;28;20025;-64
2021/03/27 13:13:32;;;;;;;14.70;3.47;;;;;;;;;;5009572;28;20018;-64
2021/03/27 13:16:08;;;;;;;17.52;3.05;;;;;;;;;;5010175;28;20132;-64
2021/03/27 13:18:55;;;;;;;7.38;2.75;;;;;;;;;;5010383;28;20030;-64
2021/03/27 13:21:23;;;;;;;9.35;2.15;;;;;;;;;;5009249;28;20327;-63
2021/03/27 13:23:52;;;;;;;4.90;2.03;;;;;;;;;;5010192;28;20109;-64
2021/03/27 13:26:20;;;;;;;12.52;1.98;;;;;;;;;;5009679;28;20026;-63
2021/03/27 13:29:02;;;;;;;5.82;1.98;;;;;;;;;;5003656;28;20026;-62
2021/03/27 13:31:36;;;;;;;5.78;1.98;;;;;;;;;;5002968;28;20478;-64
2021/03/27 13:34:10;;;;;;;6.90;1.73;;;;;;;;;;5008041;28;20552;-64
2021/03/27 13:37:08;;;;;;;12.80;2.33;;;;;;;;;;5007727;28;20108;-64
2021/03/27 13:39:41;;;;;;;10.38;2.38;;;;;;;;;;4988302;28;20081;-64
2021/03/27 13:42:15;;;;;;;11.02;1.65;;;;;;;;;;5008909;28;20026;-65
2021/03/27 13:44:50;;;;;;;11.90;3.05;;;;;;;;;;5009933;28;20017;-64
2021/03/27 13:47:15;;;;;;;11.50;2.22;;;;;;;;;;5009387;28;20018;-64
2021/03/27 13:49:43;;;;;;;4.25;1.33;;;;;;;;;;5008599;28;20049;-64
2021/03/27 13:52:11;;;;;;;8.98;1.80;;;;;;;;;;5008185;28;20315;-64
2021/03/27 13:54:55;;;;;;;9.27;2.47;;;;;;;;;;5011377;28;20402;-65
2021/03/27 13:57:30;;;;;;;9.35;2.05;;;;;;;;;;5011242;28;20053;-64
2021/03/27 14:00:17;;;;;;;13.43;3.88;;;;;;;;;;5011537;28;20109;-63
2021/03/27 14:02:45;;;;;;;16.95;3.20;;;;;;;;;;5011488;28;20073;-64
2021/03/27 14:05:30;;;;;;;12.75;2.35;;;;;;;;;;5010917;28;20405;-63
2021/03/27 14:08:22;;;;;;;6.80;1.67;;;;;;;;;;5011346;28;20101;-64
2021/03/27 14:10:58;;;;;;;7.95;1.60;;;;;;;;;;5012988;28;20536;-64
2021/03/27 14:13:23;;;;;;;14.48;1.80;;;;;;;;;;5011763;28;20029;-65
2021/03/27 14:15:58;;;;;;;11.30;1.33;;;;;;;;;;5011765;28;20080;-64
2021/03/27 14:18:26;;;;;;;17.55;2.35;;;;;;;;;;5011035;28;20265;-64
2021/03/27 14:20:53;;;;;;;8.70;1.48;;;;;;;;;;5012952;28;20010;-64
2021/03/27 14:23:21;;;;;;;12.85;1.65;;;;;;;;;;5012728;28;20437;-63
2021/03/27 14:26:15;;;;;;;11.30;2.35;;;;;;;;;;5012822;28;20109;-64
2021/03/27 14:28:46;;;;;;;6.28;1.45;;;;;;;;;;4999464;28;20038;-64
2021/03/27 14:31:34;;;;;;;10.20;2.10;;;;;;;;;;5009930;28;20437;-64
2021/03/27 14:34:09;;;;;;;7.70;2.40;;;;;;;;;;5008502;28;20494;-64
2021/03/27 14:36:38;;;;;;;6.97;1.65;;;;;;;;;;5004730;28;20196;-65
2021/03/27 14:39:21;;;;;;;12.13;1.20;;;;;;;;;;5011532;28;20014;-64
2021/03/27 14:41:56;;;;;;;8.48;2.47;;;;;;;;;;5008328;28;20030;-64
2021/03/27 14:44:27;;;;;;;8.27;1.52;;;;;;;;;;5012510;28;20624;-62
2021/03/27 14:46:52;;;;;;;7.43;1.98;;;;;;;;;;5012691;28;20030;-64
2021/03/27 14:49:36;;;;;;;6.25;1.33;;;;;;;;;;5011929;28;20026;-64
2021/03/27 14:52:04;;;;;;;6.00;1.63;;;;;;;;;;5012872;28;20021;-64
2021/03/27 14:54:42;;;;;;;7.13;1.70;;;;;;;;;;5012863;28;20391;-64
2021/03/27 14:57:22;;;;;;;4.43;1.40;;;;;;;;;;5012717;28;20026;-64
2021/03/27 14:59:52;;;;;;;15.15;2.20;;;;;;;;;;5004680;28;20026;-63
2021/03/27 15:02:17;;;;;;;7.97;1.80;;;;;;;;;;5012000;28;20026;-64
2021/03/27 15:05:03;;;;;;;9.07;1.80;;;;;;;;;;5010651;28;20017;-64
2021/03/27 15:07:31;;;;;;;8.13;1.48;;;;;;;;;;5011688;28;20041;-63
2021/03/27 15:10:19;;;;;;;11.30;3.08;;;;;;;;;;5009910;28;20109;-64
2021/03/27 15:12:47;;;;;;;5.53;1.63;;;;;;;;;;5011590;28;20050;-64
2021/03/27 15:15:29;;;;;;;11.60;2.30;;;;;;;;;;5011740;28;20065;-64
2021/03/27 15:18:32;;;;;;;8.60;2.03;;;;;;;;;;5009288;28;20046;-64
2021/03/27 15:20:59;;;;;;;9.60;1.92;;;;;;;;;;4963267;28;20467;-65
2021/03/27 15:23:27;;;;;;;12.85;2.33;;;;;;;;;;4967825;28;20288;-64
2021/03/27 15:28:36;;;;;;;6.40;2.22;;;;;;;;;;5011973;28;20053;-65